createdAt,value
2019-04-27T00:03:44.857Z,20.10
2019-04-27T00:06:38.196Z,20.00
2019-04-27T00:12:16.569Z,19.90
2019-04-27T00:15:03.467Z,19.90
2019-04-27T00:18:13.982Z,19.80
2019-04-27T00:20:53.597Z,19.80
2019-04-27T00:23:37.799Z,19.50
2019-04-27T00:26:26.653Z,19.40
2019-04-27T00:29:16.318Z,19.20
2019-04-27T00:32:05.875Z,19.00
2019-04-27T00:34:55.000Z,18.80
2019-04-27T00:37:47.821Z,18.70
2019-04-27T00:40:38.569Z,18.60
2019-04-27T00:43:27.707Z,18.70
2019-04-27T00:48:37.782Z,18.70
2019-04-27T00:51:26.541Z,18.70
2019-04-27T00:54:15.426Z,18.70
2019-04-27T00:57:08.892Z,18.70
2019-04-27T01:00:13.366Z,18.80
2019-04-27T01:03:17.298Z,18.80
2019-04-27T01:05:44.343Z,18.70
2019-04-27T01:08:34.272Z,18.80
2019-04-27T01:11:24.955Z,18.80
2019-04-27T01:14:07.791Z,18.80
2019-04-27T01:16:51.490Z,18.80
2019-04-27T01:19:41.698Z,18.80
2019-04-27T01:22:31.735Z,18.70
2019-04-27T01:25:21.892Z,18.70
2019-04-27T01:28:23.751Z,18.70
2019-04-27T01:31:14.219Z,18.70
2019-04-27T01:34:04.237Z,18.60
2019-04-27T01:36:53.593Z,18.60
2019-04-27T01:39:43.401Z,18.60
2019-04-27T01:42:32.771Z,18.70
2019-04-27T01:47:49.189Z,18.50
2019-04-27T01:50:39.305Z,18.50
2019-04-27T01:53:30.415Z,18.40
2019-04-27T01:56:20.030Z,18.30
2019-04-27T02:01:38.789Z,18.30
2019-04-27T02:04:29.841Z,18.30
2019-04-27T02:09:45.652Z,18.20
2019-04-27T02:12:35.433Z,18.20
2019-04-27T02:15:24.554Z,18.20
2019-04-27T02:18:13.830Z,18.20
2019-04-27T02:20:55.197Z,18.10
2019-04-27T02:23:44.853Z,18.00
2019-04-27T02:26:34.589Z,17.90
2019-04-27T02:29:29.157Z,17.80
2019-04-27T02:32:20.432Z,17.80
2019-04-27T02:37:52.235Z,17.60
2019-04-27T02:41:10.261Z,17.50
2019-04-27T02:46:50.151Z,17.60
2019-04-27T02:49:40.789Z,17.60
2019-04-27T02:52:44.414Z,17.60
2019-04-27T02:55:33.578Z,17.60
2019-04-27T02:58:22.091Z,17.50
2019-04-27T03:01:11.412Z,17.60
2019-04-27T03:04:00.835Z,17.60
2019-04-27T03:06:50.676Z,17.60
2019-04-27T03:09:40.799Z,17.40
2019-04-27T03:12:32.547Z,17.30
2019-04-27T03:21:13.221Z,17.10
2019-04-27T03:26:39.424Z,17.10
2019-04-27T03:29:30.641Z,17.10
2019-04-27T03:32:22.680Z,17.10
2019-04-27T03:35:12.764Z,17.00
2019-04-27T03:38:01.646Z,17.00
2019-04-27T03:40:53.017Z,17.00
2019-04-27T03:43:43.164Z,17.00
2019-04-27T03:48:59.969Z,17.00
2019-04-27T03:51:51.662Z,17.00
2019-04-27T03:54:52.428Z,17.00
2019-04-27T03:58:01.031Z,17.10
2019-04-27T04:00:52.288Z,17.20
2019-04-27T04:03:40.194Z,17.10
2019-04-27T04:06:29.656Z,17.10
2019-04-27T04:09:22.161Z,17.20
2019-04-27T04:12:13.804Z,17.20
2019-04-27T04:15:03.137Z,17.20
2019-04-27T04:20:20.383Z,17.00
2019-04-27T04:23:10.549Z,17.20
2019-04-27T04:26:00.612Z,17.30
2019-04-27T04:28:50.168Z,17.40
2019-04-27T04:31:40.414Z,17.50
2019-04-27T04:36:56.032Z,17.70
2019-04-27T04:39:40.247Z,17.80
2019-04-27T04:42:30.651Z,17.90
2019-04-27T04:45:23.197Z,17.90
2019-04-27T04:48:14.446Z,18.00
2019-04-27T04:51:03.559Z,18.10
2019-04-27T04:53:52.988Z,18.20
2019-04-27T04:56:42.898Z,18.20
2019-04-27T04:59:31.721Z,18.20
2019-04-27T05:02:22.117Z,18.20
2019-04-27T05:05:11.486Z,18.10
2019-04-27T05:08:00.945Z,18.30
2019-04-27T05:10:49.900Z,18.50
2019-04-27T05:13:39.455Z,18.60
2019-04-27T05:21:25.861Z,19.00
2019-04-27T05:24:15.231Z,19.00
2019-04-27T05:27:05.226Z,18.70
2019-04-27T05:37:12.753Z,18.00
2019-04-27T05:40:02.789Z,18.10
2019-04-27T05:42:55.377Z,17.90
2019-04-27T05:48:15.416Z,18.00
2019-04-27T05:51:05.417Z,18.20
2019-04-27T05:53:54.785Z,18.40
2019-04-27T05:56:44.441Z,18.60
2019-04-27T05:59:34.119Z,18.50
2019-04-27T06:02:23.628Z,18.40
2019-04-27T06:05:13.443Z,18.50
2019-04-27T06:08:02.468Z,18.60
2019-04-27T06:10:52.092Z,18.70
2019-04-27T06:13:41.689Z,18.80
2019-04-27T06:16:30.914Z,18.90
2019-04-27T06:19:20.318Z,19.20
2019-04-27T06:22:09.892Z,19.20
2019-04-27T06:29:52.090Z,20.00
2019-04-27T06:32:41.641Z,20.20
2019-04-27T06:35:31.541Z,20.20
2019-04-27T06:38:20.799Z,20.30
2019-04-27T06:41:10.304Z,20.50
2019-04-27T06:43:59.594Z,20.70
2019-04-27T06:49:14.702Z,20.80
2019-04-27T06:52:04.008Z,21.00
2019-04-27T06:54:46.172Z,21.10
2019-04-27T06:57:35.538Z,20.90
2019-04-27T07:00:24.433Z,20.80
2019-04-27T07:08:05.873Z,21.10
2019-04-27T07:11:01.578Z,21.30
2019-04-27T07:13:43.124Z,21.40
2019-04-27T07:16:32.215Z,21.70
2019-04-27T07:19:21.516Z,22.10
2019-04-27T07:22:11.502Z,22.10
2019-04-27T07:25:01.139Z,22.00
2019-04-27T07:27:50.537Z,21.80
2019-04-27T07:30:18.973Z,21.90
2019-04-27T07:33:09.115Z,21.80
2019-04-27T07:35:59.070Z,21.90
2019-04-27T07:41:14.824Z,22.20
2019-04-27T07:49:19.028Z,22.30
2019-04-27T07:52:02.681Z,22.40
2019-04-27T07:54:45.178Z,22.50
2019-04-27T07:57:35.086Z,22.50
2019-04-27T08:00:25.278Z,22.20
2019-04-27T08:03:15.288Z,22.50
2019-04-27T08:06:04.677Z,22.90
2019-04-27T08:08:54.025Z,23.20
2019-04-27T08:11:42.950Z,22.90
2019-04-27T08:14:32.313Z,23.00
2019-04-27T08:17:21.514Z,23.10
2019-04-27T08:20:10.734Z,23.10
2019-04-27T08:23:01.310Z,22.90
2019-04-27T08:25:50.256Z,23.00
2019-04-27T08:31:32.016Z,23.00
2019-04-27T08:34:40.532Z,22.40
2019-04-27T08:39:56.440Z,21.60
2019-04-27T08:42:45.922Z,21.50
2019-04-27T08:45:35.497Z,21.50
2019-04-27T08:50:50.824Z,21.10
2019-04-27T08:53:40.526Z,20.90
2019-04-27T08:56:30.540Z,21.20
2019-04-27T08:59:19.921Z,21.10
2019-04-27T09:02:09.211Z,21.20
2019-04-27T09:04:59.657Z,21.10
2019-04-27T09:15:44.589Z,20.90
2019-04-27T09:21:10.614Z,21.10
2019-04-27T09:24:00.022Z,21.10
2019-04-27T09:26:42.894Z,21.00
2019-04-27T09:31:59.627Z,20.90
2019-04-27T09:34:49.873Z,20.60
2019-04-27T09:37:39.946Z,20.40
2019-04-27T09:40:31.697Z,20.10
2019-04-27T09:43:21.256Z,20.10
2019-04-27T09:48:36.289Z,20.10
2019-04-27T09:51:25.664Z,20.20
2019-04-27T09:54:15.938Z,20.20
2019-04-27T09:59:31.494Z,19.70
2019-04-27T10:02:21.003Z,19.70
2019-04-27T10:05:11.081Z,19.60
2019-04-27T10:10:27.732Z,19.20
2019-04-27T10:13:17.119Z,19.10
2019-04-27T10:16:06.037Z,19.10
2019-04-27T10:21:22.340Z,18.50
2019-04-27T10:24:11.133Z,18.60
2019-04-27T10:27:00.239Z,18.80
2019-04-27T10:29:27.303Z,18.70
2019-04-27T10:32:16.926Z,18.90
2019-04-27T10:35:07.574Z,19.10
2019-04-27T10:37:56.968Z,19.30
2019-04-27T10:43:11.492Z,19.00
2019-04-27T10:46:01.297Z,19.00
2019-04-27T10:48:50.780Z,19.30
2019-04-27T10:51:39.942Z,19.70
2019-04-27T10:54:29.236Z,20.00
2019-04-27T10:57:18.393Z,20.20
2019-04-27T11:02:34.527Z,20.40
2019-04-27T11:05:31.158Z,20.70
2019-04-27T11:08:20.274Z,20.50
2019-04-27T11:11:09.825Z,20.50
2019-04-27T11:14:01.019Z,20.70
2019-04-27T11:16:51.184Z,20.80
2019-04-27T11:19:40.729Z,21.00
2019-04-27T11:24:56.456Z,21.00
2019-04-27T11:27:45.825Z,21.10
2019-04-27T11:30:35.151Z,21.20
2019-04-27T11:33:26.374Z,21.50
2019-04-27T11:36:27.951Z,21.70
2019-04-27T11:41:54.998Z,21.60
2019-04-27T11:44:44.427Z,21.50
2019-04-27T11:49:55.771Z,21.30
2019-04-27T11:52:45.641Z,21.30
2019-04-27T11:55:35.867Z,21.10
2019-04-27T11:58:02.911Z,21.30
2019-04-27T12:00:52.764Z,21.10
2019-04-27T12:03:41.653Z,20.80
2019-04-27T12:08:59.148Z,20.20
2019-04-27T12:11:49.400Z,20.20
2019-04-27T12:14:39.090Z,20.40
2019-04-27T12:17:29.241Z,20.50
2019-04-27T12:20:21.843Z,20.20
2019-04-27T12:23:11.210Z,20.20
2019-04-27T12:25:38.271Z,19.90
2019-04-27T12:28:28.881Z,19.40
2019-04-27T12:33:59.061Z,19.80
2019-04-27T12:36:48.420Z,19.40
2019-04-27T12:39:37.840Z,19.30
2019-04-27T12:42:27.021Z,18.90
2019-04-27T12:44:54.063Z,18.80
2019-04-27T12:50:10.979Z,18.80
2019-04-27T12:53:04.629Z,18.60
2019-04-27T12:55:56.546Z,18.30
2019-04-27T12:58:47.646Z,18.50
2019-04-27T13:01:36.584Z,18.30
2019-04-27T13:09:20.011Z,18.00
2019-04-27T13:12:09.327Z,17.90
2019-04-27T13:14:58.956Z,17.80
2019-04-27T13:17:47.672Z,17.70
2019-04-27T13:20:36.694Z,17.40
2019-04-27T13:23:28.662Z,17.20
2019-04-27T13:26:18.110Z,17.10
2019-04-27T13:29:07.131Z,17.00
2019-04-27T13:31:57.745Z,16.70
2019-04-27T13:34:47.114Z,16.60
2019-04-27T13:37:39.328Z,16.60
2019-04-27T13:43:00.362Z,16.80
2019-04-27T13:45:58.043Z,16.70
2019-04-27T13:51:17.848Z,16.70
2019-04-27T13:54:18.548Z,16.40
2019-04-27T13:56:35.216Z,16.20
2019-04-27T13:59:25.030Z,16.10
2019-04-27T14:02:16.032Z,16.10
2019-04-27T14:07:31.129Z,16.00
2019-04-27T14:10:21.510Z,15.90
2019-04-27T14:15:36.638Z,15.90
2019-04-27T14:18:26.069Z,15.80
2019-04-27T14:23:42.649Z,15.70
2019-04-27T14:26:31.653Z,15.60
2019-04-27T14:29:21.186Z,15.60
2019-04-27T14:32:10.927Z,15.50
2019-04-27T14:35:00.191Z,15.60
2019-04-27T14:37:50.406Z,15.30
2019-04-27T14:43:05.964Z,15.20
2019-04-27T14:45:55.634Z,15.00
2019-04-27T14:48:44.705Z,15.10
2019-04-27T14:51:34.137Z,15.10
2019-04-27T14:54:25.260Z,15.00
2019-04-27T14:57:16.297Z,14.90
2019-04-27T15:02:31.866Z,15.00
2019-04-27T15:05:21.813Z,14.90
2019-04-27T15:08:10.482Z,14.80
2019-04-27T15:15:51.965Z,14.80
2019-04-27T15:18:43.711Z,14.80
2019-04-27T15:21:38.378Z,14.70
2019-04-27T15:24:13.439Z,14.40
2019-04-27T15:27:02.137Z,14.50
2019-04-27T15:32:19.051Z,14.20
2019-04-27T15:37:50.208Z,14.20
2019-04-27T15:43:15.142Z,14.10
2019-04-27T15:46:05.409Z,14.00
2019-04-27T15:48:54.823Z,14.00
2019-04-27T15:54:09.481Z,13.90
2019-04-27T15:56:58.755Z,13.90
2019-04-27T15:59:48.269Z,13.80
2019-04-27T16:02:38.320Z,13.70
2019-04-27T16:05:32.228Z,13.80
2019-04-27T16:08:19.065Z,13.80
2019-04-27T16:13:34.095Z,13.70
2019-04-27T16:16:24.583Z,13.60
2019-04-27T16:19:14.212Z,13.60
2019-04-27T16:21:46.938Z,13.40
2019-04-27T16:24:32.614Z,13.50
2019-04-27T16:27:25.761Z,13.50
2019-04-27T16:30:17.871Z,13.50
2019-04-27T16:33:03.541Z,13.50
2019-04-27T16:35:53.204Z,13.40
2019-04-27T16:39:03.855Z,13.40
2019-04-27T16:44:25.658Z,13.40
2019-04-27T16:47:18.874Z,13.20
2019-04-27T16:50:05.285Z,13.40
2019-04-27T16:55:20.723Z,13.30
2019-04-27T16:58:15.709Z,13.10
2019-04-27T17:01:06.697Z,13.20
2019-04-27T17:08:44.175Z,13.20
2019-04-27T17:11:33.861Z,13.10
2019-04-27T17:14:29.004Z,13.20
2019-04-27T17:19:44.051Z,13.10
2019-04-27T17:22:33.550Z,13.00
2019-04-27T17:25:23.518Z,13.00
2019-04-27T17:30:41.903Z,13.10
2019-04-27T17:36:04.716Z,13.00
2019-04-27T17:38:54.485Z,12.90
2019-04-27T17:41:49.265Z,13.00
2019-04-27T17:47:01.476Z,13.20
2019-04-27T17:49:50.427Z,13.20
2019-04-27T17:52:39.895Z,13.30
2019-04-27T17:55:29.797Z,13.30
2019-04-27T17:58:20.907Z,13.20
2019-04-27T18:01:13.917Z,13.30
2019-04-27T18:04:06.433Z,13.20
2019-04-27T18:06:59.675Z,13.20
2019-04-27T18:14:41.226Z,13.20
2019-04-27T18:17:30.183Z,13.20
2019-04-27T18:23:25.179Z,13.00
2019-04-27T18:26:19.722Z,13.00
2019-04-27T18:29:09.402Z,13.00
2019-04-27T18:31:58.736Z,13.10
2019-04-27T18:34:51.939Z,13.00
2019-04-27T18:37:28.296Z,13.10
2019-04-27T18:40:10.901Z,13.10
2019-04-27T18:43:12.047Z,13.20
2019-04-27T18:45:58.765Z,13.20
2019-04-27T18:48:53.918Z,13.30
2019-04-27T18:51:39.977Z,13.10
2019-04-27T18:54:15.562Z,13.10
2019-04-27T18:57:02.634Z,13.00
2019-04-27T18:59:35.878Z,13.00
2019-04-27T19:02:18.496Z,12.90
2019-04-27T19:04:54.900Z,12.90
2019-04-27T19:07:38.299Z,13.00
2019-04-27T19:10:28.164Z,12.90
2019-04-27T19:13:19.230Z,12.90
2019-04-27T19:16:09.105Z,12.80
2019-04-27T19:18:58.559Z,12.70
2019-04-27T19:21:48.607Z,12.70
2019-04-27T19:24:37.481Z,12.70
2019-04-27T19:27:42.546Z,12.70
2019-04-27T19:30:29.894Z,12.70
2019-04-27T19:33:19.761Z,12.70
2019-04-27T19:36:09.086Z,12.70
2019-04-27T19:38:58.898Z,12.80
2019-04-27T19:41:59.456Z,12.70
2019-04-27T19:44:39.319Z,12.80
2019-04-27T19:47:29.900Z,12.70
2019-04-27T19:50:21.951Z,12.70
2019-04-27T19:53:11.226Z,12.60
2019-04-27T19:56:08.696Z,12.50
2019-04-27T19:59:00.015Z,12.50
2019-04-27T20:01:34.172Z,12.40
2019-04-27T20:07:10.643Z,12.30
2019-04-27T20:10:02.175Z,12.40
2019-04-27T20:12:51.873Z,12.40
2019-04-27T20:15:42.916Z,12.50
2019-04-27T20:18:31.882Z,12.50
2019-04-27T20:21:21.611Z,12.50
2019-04-27T20:24:11.784Z,12.50
2019-04-27T20:27:03.895Z,12.40
2019-04-27T20:29:53.727Z,12.40
2019-04-27T20:32:42.732Z,12.30
2019-04-27T20:35:31.891Z,12.40
2019-04-27T20:38:21.889Z,12.40
2019-04-27T20:41:11.610Z,12.30
2019-04-27T20:44:02.217Z,12.30
2019-04-27T20:46:51.498Z,12.40
2019-04-27T20:49:40.135Z,12.40
2019-04-27T20:54:55.511Z,12.30
2019-04-27T20:57:44.596Z,12.30
2019-04-27T21:00:33.973Z,12.30
2019-04-27T21:08:16.859Z,12.30
2019-04-27T21:11:05.637Z,12.30
2019-04-27T21:13:56.777Z,12.30
2019-04-27T21:16:45.346Z,12.40
2019-04-27T21:19:34.192Z,12.40
2019-04-27T21:22:23.632Z,12.40
2019-04-27T21:25:12.723Z,12.40
2019-04-27T21:37:46.961Z,12.30
2019-04-27T21:40:36.404Z,12.30
2019-04-27T21:43:29.211Z,12.30
2019-04-27T21:51:11.819Z,12.10
2019-04-27T21:54:05.714Z,12.20
2019-04-27T21:56:54.678Z,12.20
2019-04-27T21:59:43.798Z,12.40
2019-04-27T22:02:33.590Z,12.30
2019-04-27T22:05:22.726Z,12.20
2019-04-27T22:07:56.649Z,12.20
2019-04-27T22:10:46.611Z,12.20
2019-04-27T22:13:35.946Z,12.20
2019-04-27T22:16:25.362Z,12.10
2019-04-27T22:19:14.868Z,12.10
2019-04-27T22:24:42.830Z,12.00
2019-04-27T22:29:56.693Z,12.20
2019-04-27T22:32:45.915Z,12.10
2019-04-27T22:35:35.091Z,12.10
2019-04-27T22:41:03.825Z,11.90
2019-04-27T22:46:26.272Z,11.80
2019-04-27T22:49:16.062Z,11.80
2019-04-27T22:54:47.286Z,12.00
2019-04-27T22:57:38.653Z,12.10
2019-04-27T23:00:37.886Z,12.10
2019-04-27T23:03:32.663Z,12.00
2019-04-27T23:06:22.578Z,11.80
2019-04-27T23:09:11.851Z,11.90
2019-04-27T23:12:01.800Z,11.80
2019-04-27T23:14:51.154Z,11.80
2019-04-27T23:23:05.720Z,11.70
2019-04-27T23:25:55.670Z,11.70
2019-04-27T23:28:25.019Z,11.90
2019-04-27T23:31:31.918Z,11.80
2019-04-27T23:34:22.079Z,11.80
2019-04-27T23:37:11.062Z,11.90
2019-04-27T23:40:00.871Z,11.80
2019-04-27T23:42:37.369Z,11.70
2019-04-27T23:47:52.938Z,11.70
2019-04-27T23:50:36.332Z,11.70
2019-04-27T23:56:02.169Z,11.60
